Time;durP1;ratioP1;P1;durP2;ratioP2;P2;SDS_P1;SDS_P2;PMS_P1;PMS_P2;Temp;Humidity;BMP_temperature;BMP_pressure;BME280_temperature;BME280_humidity;BME280_pressure;Samples;Min_cycle;Max_cycle;Signal;HPM_P1;HPM_P2
2023/10/23 00:01:48;;;;;;;6.70;3.20;;;;;;;;;;5052454;27;88978;-54
2023/10/23 00:04:17;;;;;;;3.20;2.27;;;;;;;;;;5039925;28;88357;-54
2023/10/23 00:06:46;;;;;;;4.73;2.43;;;;;;;;;;5059227;27;89295;-54
2023/10/23 00:09:15;;;;;;;3.00;2.30;;;;;;;;;;5060518;27;89372;-54
2023/10/23 00:11:43;;;;;;;4.23;2.17;;;;;;;;;;5050690;27;87724;-54
2023/10/23 00:14:12;;;;;;;3.23;2.93;;;;;;;;;;5054585;27;87711;-54
2023/10/23 00:16:40;;;;;;;5.33;2.37;;;;;;;;;;5059084;27;88695;-55
2023/10/23 00:19:08;;;;;;;4.47;2.63;;;;;;;;;;5049806;27;88389;-55
2023/10/23 00:21:37;;;;;;;4.20;2.17;;;;;;;;;;5058626;27;87756;-55
2023/10/23 00:24:07;;;;;;;2.40;1.60;;;;;;;;;;5059826;27;87701;-54
2023/10/23 00:26:36;;;;;;;3.27;2.30;;;;;;;;;;5059149;27;89672;-55
2023/10/23 00:29:04;;;;;;;3.87;2.70;;;;;;;;;;5058161;27;90453;-55
2023/10/23 00:31:32;;;;;;;5.87;2.50;;;;;;;;;;5063152;27;89686;-55
2023/10/23 00:34:01;;;;;;;4.87;3.10;;;;;;;;;;5062317;27;87690;-54
2023/10/23 00:36:29;;;;;;;4.57;2.90;;;;;;;;;;5062550;27;88639;-55
2023/10/23 00:38:57;;;;;;;6.70;2.47;;;;;;;;;;5062671;27;88016;-54
2023/10/23 00:41:27;;;;;;;5.30;2.37;;;;;;;;;;5062814;27;88840;-54
2023/10/23 00:43:55;;;;;;;3.83;1.87;;;;;;;;;;5062589;27;87795;-55
2023/10/23 00:46:24;;;;;;;4.30;2.50;;;;;;;;;;5063260;27;87321;-54
2023/10/23 00:48:53;;;;;;;3.37;2.70;;;;;;;;;;5062722;27;87863;-55
2023/10/23 00:51:21;;;;;;;2.97;2.07;;;;;;;;;;5060423;27;88915;-54
2023/10/23 00:53:50;;;;;;;3.50;2.43;;;;;;;;;;5060768;27;87938;-54
2023/10/23 00:56:18;;;;;;;4.13;2.47;;;;;;;;;;5057238;27;89711;-54
2023/10/23 00:58:48;;;;;;;2.80;2.17;;;;;;;;;;5062590;27;88023;-54
2023/10/23 01:01:16;;;;;;;3.70;2.50;;;;;;;;;;5062219;27;87879;-54
2023/10/23 01:03:45;;;;;;;5.33;3.77;;;;;;;;;;5062774;27;87650;-54
2023/10/23 01:06:13;;;;;;;4.83;2.63;;;;;;;;;;5062087;27;89628;-54
2023/10/23 01:08:42;;;;;;;3.70;2.27;;;;;;;;;;5060234;27;89224;-54
2023/10/23 01:11:10;;;;;;;5.20;3.00;;;;;;;;;;5062867;27;88781;-54
2023/10/23 01:13:39;;;;;;;3.90;2.00;;;;;;;;;;5062878;27;87690;-54
2023/10/23 01:16:09;;;;;;;2.10;1.67;;;;;;;;;;5061816;27;89419;-54
2023/10/23 01:18:37;;;;;;;3.27;2.13;;;;;;;;;;5061366;27;89137;-54
2023/10/23 01:21:06;;;;;;;3.87;2.80;;;;;;;;;;5061915;27;89642;-54
2023/10/23 01:23:34;;;;;;;3.80;1.87;;;;;;;;;;5062318;27;87608;-54
2023/10/23 01:26:04;;;;;;;4.40;2.63;;;;;;;;;;5061952;27;87475;-54
2023/10/23 01:28:32;;;;;;;3.43;2.50;;;;;;;;;;5061503;27;87918;-54
2023/10/23 01:31:01;;;;;;;5.33;2.60;;;;;;;;;;5059282;27;88636;-55
2023/10/23 01:33:29;;;;;;;4.03;2.27;;;;;;;;;;5061941;27;87672;-55
2023/10/23 01:35:58;;;;;;;3.60;2.40;;;;;;;;;;5061942;27;89613;-55
2023/10/23 01:38:26;;;;;;;3.87;2.93;;;;;;;;;;5062129;27;88991;-55
2023/10/23 01:40:55;;;;;;;4.77;2.73;;;;;;;;;;5056416;27;87739;-55
2023/10/23 01:43:24;;;;;;;5.03;2.87;;;;;;;;;;5053803;27;87765;-55
2023/10/23 01:45:53;;;;;;;7.13;3.00;;;;;;;;;;5061972;27;89661;-55
2023/10/23 01:48:22;;;;;;;4.23;2.57;;;;;;;;;;5061622;27;89025;-54
2023/10/23 01:50:50;;;;;;;4.37;2.53;;;;;;;;;;5061595;27;88999;-55
2023/10/23 01:53:19;;;;;;;3.83;2.73;;;;;;;;;;5061505;27;87655;-55
2023/10/23 01:55:47;;;;;;;2.27;2.00;;;;;;;;;;5061273;27;89639;-54
2023/10/23 01:58:15;;;;;;;4.30;2.60;;;;;;;;;;5061358;27;89128;-55
2023/10/23 02:00:45;;;;;;;3.63;2.33;;;;;;;;;;5060983;27;87472;-55
2023/10/23 02:03:13;;;;;;;4.33;2.43;;;;;;;;;;5060871;27;87663;-55
2023/10/23 02:05:42;;;;;;;5.33;2.87;;;;;;;;;;5061588;27;88837;-54
2023/10/23 02:08:10;;;;;;;3.23;2.57;;;;;;;;;;5060565;27;90031;-54
2023/10/23 02:10:38;;;;;;;3.13;2.83;;;;;;;;;;5059009;27;89954;-54
2023/10/23 02:13:07;;;;;;;4.43;2.67;;;;;;;;;;5061673;27;87493;-55
2023/10/23 02:15:35;;;;;;;2.63;2.10;;;;;;;;;;5060702;27;89756;-55
2023/10/23 02:18:05;;;;;;;4.43;3.00;;;;;;;;;;5061080;27;88245;-54
2023/10/23 02:20:33;;;;;;;4.73;3.20;;;;;;;;;;5060862;27;88787;-54
2023/10/23 02:23:02;;;;;;;6.27;3.13;;;;;;;;;;5060687;27;87455;-55
2023/10/23 02:25:30;;;;;;;3.27;2.40;;;;;;;;;;5061347;27;88520;-55
2023/10/23 02:27:58;;;;;;;6.10;3.10;;;;;;;;;;5057535;27;88049;-54
2023/10/23 02:30:27;;;;;;;5.47;2.80;;;;;;;;;;5060862;27;88847;-55
2023/10/23 02:32:55;;;;;;;5.83;3.33;;;;;;;;;;5060740;27;88189;-54
2023/10/23 02:35:25;;;;;;;3.93;2.80;;;;;;;;;;5060776;27;88806;-54
2023/10/23 02:37:53;;;;;;;6.43;3.53;;;;;;;;;;5060177;27;89040;-55
2023/10/23 02:40:22;;;;;;;6.33;3.33;;;;;;;;;;5059600;27;87550;-54
2023/10/23 02:42:50;;;;;;;6.27;2.90;;;;;;;;;;5060832;27;88178;-55
2023/10/23 02:45:19;;;;;;;6.00;3.70;;;;;;;;;;5060153;27;88551;-55
2023/10/23 02:47:48;;;;;;;2.93;2.70;;;;;;;;;;5060723;27;89195;-55
2023/10/23 02:50:16;;;;;;;3.30;2.77;;;;;;;;;;5052607;27;87582;-54
2023/10/23 02:52:46;;;;;;;5.37;2.67;;;;;;;;;;5060580;27;87658;-55
2023/10/23 02:55:14;;;;;;;3.77;2.87;;;;;;;;;;5057860;27;88399;-55
2023/10/23 02:57:43;;;;;;;4.40;3.00;;;;;;;;;;5060248;27;90063;-55
2023/10/23 03:00:12;;;;;;;6.07;3.83;;;;;;;;;;5060511;27;89896;-55
2023/10/23 03:02:43;;;;;;;5.20;3.40;;;;;;;;;;5057036;27;87918;-55
2023/10/23 03:05:13;;;;;;;4.23;3.80;;;;;;;;;;5057870;27;87396;-55
2023/10/23 03:07:42;;;;;;;6.03;3.77;;;;;;;;;;5057965;27;88738;-55
2023/10/23 03:10:12;;;;;;;6.23;2.80;;;;;;;;;;5057879;27;88186;-55
2023/10/23 03:12:41;;;;;;;5.20;3.77;;;;;;;;;;5057611;27;87668;-55
2023/10/23 03:15:09;;;;;;;5.90;3.57;;;;;;;;;;5057346;27;90034;-55
2023/10/23 03:17:38;;;;;;;5.30;3.57;;;;;;;;;;5057779;27;89041;-55
2023/10/23 03:20:08;;;;;;;3.80;2.90;;;;;;;;;;5057423;27;88257;-55
2023/10/23 03:22:37;;;;;;;6.83;2.70;;;;;;;;;;5054991;27;88100;-55
2023/10/23 03:25:06;;;;;;;3.30;2.30;;;;;;;;;;5057082;27;88520;-55
2023/10/23 03:27:36;;;;;;;4.60;3.20;;;;;;;;;;5055397;27;88120;-55
2023/10/23 03:30:05;;;;;;;4.67;3.37;;;;;;;;;;5056880;27;87924;-55
2023/10/23 03:32:33;;;;;;;3.83;2.77;;;;;;;;;;5057075;27;88046;-55
2023/10/23 03:35:03;;;;;;;8.70;4.47;;;;;;;;;;5057043;27;87610;-55
2023/10/23 03:37:31;;;;;;;6.17;2.60;;;;;;;;;;5057315;27;87936;-55
2023/10/23 03:40:00;;;;;;;4.37;3.13;;;;;;;;;;5056907;27;88752;-54
2023/10/23 03:42:28;;;;;;;4.40;2.80;;;;;;;;;;5057258;27;87403;-55
2023/10/23 03:44:58;;;;;;;3.47;2.50;;;;;;;;;;5057002;27;88441;-55
2023/10/23 03:47:26;;;;;;;4.10;2.90;;;;;;;;;;5056799;27;90021;-55
2023/10/23 03:49:54;;;;;;;3.53;2.77;;;;;;;;;;5054503;27;89272;-55
2023/10/23 03:52:23;;;;;;;5.63;3.13;;;;;;;;;;5057659;27;87766;-55
2023/10/23 03:54:51;;;;;;;5.33;2.90;;;;;;;;;;5057123;27;89631;-54
2023/10/23 03:57:20;;;;;;;4.53;2.83;;;;;;;;;;5056727;27;89028;-54
2023/10/23 03:59:48;;;;;;;4.83;3.13;;;;;;;;;;5056959;27;88891;-55
2023/10/23 04:02:18;;;;;;;3.63;2.90;;;;;;;;;;5057289;27;87636;-55
2023/10/23 04:04:46;;;;;;;4.03;2.63;;;;;;;;;;5058313;27;87442;-54
2023/10/23 04:07:15;;;;;;;3.07;2.57;;;;;;;;;;5061075;27;88221;-54
2023/10/23 04:09:43;;;;;;;4.83;3.23;;;;;;;;;;5060749;27;88947;-54
2023/10/23 04:12:11;;;;;;;9.57;2.40;;;;;;;;;;5060109;27;88152;-54
2023/10/23 04:14:40;;;;;;;3.03;2.73;;;;;;;;;;5058741;27;89409;-54
2023/10/23 04:17:08;;;;;;;4.13;2.73;;;;;;;;;;5061366;27;88028;-54
2023/10/23 04:19:39;;;;;;;4.57;2.67;;;;;;;;;;5063174;27;87614;-54
2023/10/23 04:22:07;;;;;;;3.87;2.50;;;;;;;;;;5063300;27;87477;-54
2023/10/23 04:24:35;;;;;;;3.00;2.00;;;;;;;;;;5062235;27;87508;-54
2023/10/23 04:27:04;;;;;;;2.90;2.30;;;;;;;;;;5062596;27;89155;-54
2023/10/23 04:29:32;;;;;;;3.80;2.47;;;;;;;;;;5062846;27;87739;-54
2023/10/23 04:32:01;;;;;;;3.73;2.87;;;;;;;;;;5061851;27;87604;-54
2023/10/23 04:34:29;;;;;;;3.77;2.53;;;;;;;;;;5062671;27;88582;-54
2023/10/23 04:36:59;;;;;;;5.83;2.63;;;;;;;;;;5061354;27;89956;-55
2023/10/23 04:39:27;;;;;;;3.57;2.47;;;;;;;;;;5062242;27;89813;-54
2023/10/23 04:41:56;;;;;;;3.87;2.50;;;;;;;;;;5062355;27;87627;-55
2023/10/23 04:44:25;;;;;;;4.60;3.23;;;;;;;;;;5062412;27;89548;-54
2023/10/23 04:46:53;;;;;;;5.17;2.43;;;;;;;;;;5059951;27;87603;-54
2023/10/23 04:49:22;;;;;;;4.43;2.80;;;;;;;;;;5059080;27;88658;-54
2023/10/23 04:51:50;;;;;;;8.70;2.83;;;;;;;;;;5058161;27;88292;-54
2023/10/23 04:54:20;;;;;;;4.37;3.43;;;;;;;;;;5059792;27;89732;-54
2023/10/23 04:56:48;;;;;;;4.70;2.50;;;;;;;;;;5056263;27;88216;-54
2023/10/23 04:59:17;;;;;;;3.30;2.10;;;;;;;;;;5054256;27;88493;-55
2023/10/23 05:01:45;;;;;;;2.93;2.23;;;;;;;;;;5061020;27;89050;-54
2023/10/23 05:04:13;;;;;;;3.00;2.23;;;;;;;;;;5061039;27;88592;-54
2023/10/23 05:06:42;;;;;;;4.87;2.30;;;;;;;;;;5061389;27;89421;-54
2023/10/23 05:09:12;;;;;;;4.50;2.87;;;;;;;;;;5060794;27;88413;-54
2023/10/23 05:11:42;;;;;;;3.10;2.33;;;;;;;;;;5061844;27;87681;-54
2023/10/23 05:14:10;;;;;;;2.70;2.17;;;;;;;;;;5061417;27;88578;-54
2023/10/23 05:16:38;;;;;;;3.13;2.03;;;;;;;;;;5060264;27;87964;-54
2023/10/23 05:19:07;;;;;;;2.63;2.20;;;;;;;;;;5060072;27;88902;-54
2023/10/23 05:21:35;;;;;;;3.90;2.00;;;;;;;;;;5062714;27;87695;-55
2023/10/23 05:24:04;;;;;;;4.60;2.33;;;;;;;;;;5061882;27;87257;-54
2023/10/23 05:26:33;;;;;;;7.53;2.97;;;;;;;;;;5061870;27;87732;-54
2023/10/23 05:29:03;;;;;;;3.97;2.60;;;;;;;;;;5061900;27;89825;-54
2023/10/23 05:31:31;;;;;;;5.30;2.60;;;;;;;;;;5062302;27;87663;-54
2023/10/23 05:34:00;;;;;;;6.17;3.57;;;;;;;;;;5061773;27;88702;-54
2023/10/23 05:36:28;;;;;;;3.93;2.67;;;;;;;;;;5061963;27;89340;-54
2023/10/23 05:38:57;;;;;;;3.37;2.40;;;;;;;;;;5054403;27;88170;-54
2023/10/23 05:41:26;;;;;;;3.60;3.00;;;;;;;;;;5062050;27;87291;-54
2023/10/23 05:43:54;;;;;;;5.53;3.57;;;;;;;;;;5061276;27;88540;-54
2023/10/23 05:46:24;;;;;;;7.73;4.00;;;;;;;;;;5060935;27;87535;-54
2023/10/23 05:48:52;;;;;;;4.27;2.57;;;;;;;;;;5061445;27;88706;-54
2023/10/23 05:51:21;;;;;;;5.20;2.60;;;;;;;;;;5060511;27;87935;-55
2023/10/23 05:53:50;;;;;;;6.50;2.93;;;;;;;;;;5061213;27;88522;-55
2023/10/23 05:56:18;;;;;;;3.73;2.63;;;;;;;;;;5061034;27;89097;-55
2023/10/23 05:58:48;;;;;;;4.63;3.27;;;;;;;;;;5059909;27;87730;-55
2023/10/23 06:01:17;;;;;;;4.10;2.53;;;;;;;;;;5061553;27;87659;-55
2023/10/23 06:03:47;;;;;;;6.13;2.80;;;;;;;;;;5060318;27;89706;-54
2023/10/23 06:06:15;;;;;;;5.40;2.73;;;;;;;;;;5061369;27;88347;-55
2023/10/23 06:08:43;;;;;;;2.73;2.53;;;;;;;;;;5059949;27;87732;-55
2023/10/23 06:11:12;;;;;;;5.00;3.40;;;;;;;;;;5061548;27;87688;-55
2023/10/23 06:13:40;;;;;;;3.33;2.30;;;;;;;;;;5060814;27;89597;-54
2023/10/23 06:16:09;;;;;;;5.43;3.07;;;;;;;;;;5060344;27;90134;-54
2023/10/23 06:18:38;;;;;;;4.80;3.00;;;;;;;;;;5060988;27;88639;-54
2023/10/23 06:21:08;;;;;;;4.87;2.90;;;;;;;;;;5058845;27;88765;-54
2023/10/23 06:23:37;;;;;;;5.13;3.10;;;;;;;;;;5060425;27;89577;-54
2023/10/23 06:26:05;;;;;;;4.77;2.83;;;;;;;;;;5061236;27;88651;-54
2023/10/23 06:28:34;;;;;;;5.67;3.10;;;;;;;;;;5060065;27;88804;-55
2023/10/23 06:31:05;;;;;;;3.50;3.20;;;;;;;;;;5061238;27;87688;-53
2023/10/23 06:33:34;;;;;;;5.37;2.60;;;;;;;;;;5061105;27;88515;-54
2023/10/23 06:36:04;;;;;;;4.67;2.70;;;;;;;;;;5060362;27;88969;-54
2023/10/23 06:38:33;;;;;;;4.90;2.77;;;;;;;;;;5059744;27;88957;-56
2023/10/23 06:41:05;;;;;;;4.60;3.20;;;;;;;;;;5059971;27;88034;-53
2023/10/23 06:43:33;;;;;;;3.80;2.97;;;;;;;;;;5060583;27;87510;-53
2023/10/23 06:46:03;;;;;;;4.30;3.20;;;;;;;;;;5060801;27;88089;-57
2023/10/23 06:48:32;;;;;;;4.77;2.50;;;;;;;;;;5060302;27;88821;-53
2023/10/23 06:51:00;;;;;;;6.07;2.97;;;;;;;;;;5060673;27;87791;-54
2023/10/23 06:53:29;;;;;;;3.63;2.80;;;;;;;;;;5061007;27;88584;-54
2023/10/23 06:55:58;;;;;;;5.33;2.33;;;;;;;;;;5060629;27;89070;-54
2023/10/23 06:58:27;;;;;;;5.70;3.07;;;;;;;;;;5056570;27;87777;-54
2023/10/23 07:00:55;;;;;;;3.97;2.40;;;;;;;;;;5057167;27;88242;-53
2023/10/23 07:03:24;;;;;;;4.83;2.43;;;;;;;;;;5054069;27;89722;-54
2023/10/23 07:05:52;;;;;;;4.90;2.60;;;;;;;;;;5056373;27;89082;-54
2023/10/23 07:08:21;;;;;;;3.97;2.90;;;;;;;;;;5051339;27;89345;-53
2023/10/23 07:10:49;;;;;;;6.63;3.03;;;;;;;;;;5051168;27;87612;-53
2023/10/23 07:13:19;;;;;;;8.07;2.57;;;;;;;;;;5059406;27;88588;-54
2023/10/23 07:15:50;;;;;;;7.10;3.03;;;;;;;;;;5060532;27;89331;-53
2023/10/23 07:18:19;;;;;;;6.17;2.97;;;;;;;;;;5059079;27;88812;-53
2023/10/23 07:20:55;;;;;;;5.67;2.73;;;;;;;;;;5060528;27;87850;-54
2023/10/23 07:23:23;;;;;;;4.40;2.57;;;;;;;;;;5060659;27;88627;-53
2023/10/23 07:26:00;;;;;;;5.00;2.90;;;;;;;;;;5060101;27;88622;-53
2023/10/23 07:28:29;;;;;;;4.63;2.83;;;;;;;;;;5057398;27;88773;-53
2023/10/23 07:30:58;;;;;;;4.37;3.00;;;;;;;;;;5059258;27;89350;-53
2023/10/23 07:33:27;;;;;;;4.47;2.77;;;;;;;;;;5060293;27;88615;-53
2023/10/23 07:36:02;;;;;;;3.60;2.50;;;;;;;;;;5060224;27;87998;-53
2023/10/23 07:38:30;;;;;;;4.57;2.60;;;;;;;;;;5060633;27;87957;-53
2023/10/23 07:40:59;;;;;;;4.47;2.47;;;;;;;;;;5060239;27;87725;-53
2023/10/23 07:43:27;;;;;;;3.57;2.53;;;;;;;;;;5060784;27;87315;-53
2023/10/23 07:45:57;;;;;;;3.87;2.27;;;;;;;;;;5060846;27;89059;-55
2023/10/23 07:48:29;;;;;;;3.23;2.00;;;;;;;;;;5059912;27;88440;-53
2023/10/23 07:50:58;;;;;;;3.90;2.93;;;;;;;;;;5047324;27;87660;-53
2023/10/23 07:53:26;;;;;;;3.63;2.50;;;;;;;;;;5045634;27;89591;-53
2023/10/23 07:55:55;;;;;;;2.13;1.80;;;;;;;;;;5058921;27;89000;-54
2023/10/23 07:58:23;;;;;;;3.40;3.10;;;;;;;;;;5052735;27;88645;-53
2023/10/23 08:00:53;;;;;;;4.27;3.33;;;;;;;;;;5055887;27;87493;-53
2023/10/23 08:03:23;;;;;;;4.83;3.77;;;;;;;;;;5048853;27;88246;-53
2023/10/23 08:05:52;;;;;;;5.23;2.97;;;;;;;;;;5060410;27;87414;-53
2023/10/23 08:08:20;;;;;;;4.83;3.13;;;;;;;;;;5060510;27;87718;-54
2023/10/23 08:10:49;;;;;;;5.90;3.50;;;;;;;;;;5054943;27;87498;-53
2023/10/23 08:13:17;;;;;;;3.37;2.50;;;;;;;;;;5059978;27;89766;-53
2023/10/23 08:15:45;;;;;;;3.37;2.43;;;;;;;;;;5055925;27;88071;-53
2023/10/23 08:18:14;;;;;;;4.40;3.37;;;;;;;;;;5050903;27;88902;-53
2023/10/23 08:20:58;;;;;;;3.10;2.57;;;;;;;;;;5059902;27;87799;-53
2023/10/23 08:23:27;;;;;;;2.87;2.50;;;;;;;;;;5060081;27;88559;-53
2023/10/23 08:25:55;;;;;;;3.10;2.60;;;;;;;;;;5059900;27;87929;-53
2023/10/23 08:28:23;;;;;;;3.67;3.07;;;;;;;;;;5057004;27;88794;-54
2023/10/23 08:30:52;;;;;;;5.57;2.77;;;;;;;;;;5059139;27;87705;-53
2023/10/23 08:33:20;;;;;;;4.70;2.63;;;;;;;;;;5059145;27;89763;-53
2023/10/23 08:35:49;;;;;;;3.93;3.20;;;;;;;;;;5059786;27;89206;-53
2023/10/23 08:38:20;;;;;;;4.20;3.17;;;;;;;;;;5058686;27;87398;-53
2023/10/23 08:40:49;;;;;;;4.60;2.90;;;;;;;;;;5059457;27;87666;-54
2023/10/23 08:43:17;;;;;;;3.50;2.97;;;;;;;;;;5059260;27;88579;-53
2023/10/23 08:45:45;;;;;;;3.80;2.40;;;;;;;;;;5058796;27;89021;-53
2023/10/23 08:48:14;;;;;;;4.63;2.80;;;;;;;;;;5056581;27;89856;-53
2023/10/23 08:50:43;;;;;;;4.73;2.37;;;;;;;;;;5059776;27;87585;-53
2023/10/23 08:53:11;;;;;;;6.17;3.07;;;;;;;;;;5059473;27;89629;-53
2023/10/23 08:55:41;;;;;;;4.43;2.90;;;;;;;;;;5062626;27;88078;-53
2023/10/23 08:58:09;;;;;;;4.33;3.17;;;;;;;;;;5061691;27;88863;-56
2023/10/23 09:00:37;;;;;;;3.20;2.80;;;;;;;;;;5062668;27;87704;-57
2023/10/23 09:03:06;;;;;;;4.90;2.20;;;;;;;;;;5062156;27;89670;-57
2023/10/23 09:05:34;;;;;;;5.23;3.87;;;;;;;;;;5060044;27;89073;-54
2023/10/23 09:08:03;;;;;;;11.20;6.43;;;;;;;;;;5062017;27;88608;-57
2023/10/23 09:10:31;;;;;;;8.33;5.83;;;;;;;;;;5061204;27;88650;-53
2023/10/23 09:13:01;;;;;;;9.00;6.20;;;;;;;;;;5062374;27;88764;-54
2023/10/23 09:15:29;;;;;;;7.43;5.27;;;;;;;;;;5061765;27;88234;-54
2023/10/23 09:17:58;;;;;;;7.70;5.87;;;;;;;;;;5062031;27;88828;-53
2023/10/23 09:20:27;;;;;;;8.97;5.37;;;;;;;;;;5061840;27;87682;-53
2023/10/23 09:22:56;;;;;;;6.10;5.07;;;;;;;;;;5062223;27;88674;-53
2023/10/23 09:25:25;;;;;;;8.47;5.03;;;;;;;;;;5059708;27;88937;-53
2023/10/23 09:27:54;;;;;;;8.03;5.27;;;;;;;;;;5061824;27;88746;-53
2023/10/23 09:30:23;;;;;;;7.57;5.77;;;;;;;;;;5059435;27;87628;-53
2023/10/23 09:32:53;;;;;;;8.13;4.60;;;;;;;;;;5055355;27;89744;-54
2023/10/23 09:35:22;;;;;;;7.97;4.90;;;;;;;;;;5059721;27;90219;-54
2023/10/23 09:37:50;;;;;;;7.87;5.23;;;;;;;;;;5060345;27;89988;-56
2023/10/23 09:40:18;;;;;;;7.40;4.90;;;;;;;;;;5056964;27;87572;-53
2023/10/23 09:42:47;;;;;;;8.43;5.50;;;;;;;;;;5061887;27;88619;-53
2023/10/23 09:45:15;;;;;;;10.73;5.43;;;;;;;;;;5058657;27;88746;-53
2023/10/23 09:47:45;;;;;;;7.63;4.30;;;;;;;;;;5061662;27;87567;-55
2023/10/23 09:50:14;;;;;;;8.17;4.70;;;;;;;;;;5060073;27;87496;-54
2023/10/23 09:52:43;;;;;;;8.20;5.20;;;;;;;;;;5060735;27;88159;-53
2023/10/23 09:55:11;;;;;;;8.50;4.77;;;;;;;;;;5061803;27;90464;-53
2023/10/23 09:57:39;;;;;;;7.53;4.57;;;;;;;;;;5061653;27;88786;-52
2023/10/23 10:00:14;;;;;;;7.10;4.53;;;;;;;;;;5061416;27;88088;-53
2023/10/23 10:02:45;;;;;;;9.53;4.83;;;;;;;;;;5068718;27;89660;-52
2023/10/23 10:05:16;;;;;;;7.77;4.43;;;;;;;;;;5081938;27;88998;-53
2023/10/23 10:07:49;;;;;;;6.80;5.00;;;;;;;;;;5082685;27;88835;-54
2023/10/23 10:10:17;;;;;;;7.20;4.67;;;;;;;;;;5067102;27;87586;-54
2023/10/23 10:12:46;;;;;;;7.93;5.00;;;;;;;;;;5061687;27;90009;-53
2023/10/23 10:15:15;;;;;;;6.33;3.93;;;;;;;;;;5061753;27;87826;-53
2023/10/23 10:17:43;;;;;;;6.60;4.33;;;;;;;;;;5062223;27;88743;-53
2023/10/23 10:20:12;;;;;;;6.00;4.50;;;;;;;;;;5062353;27;87718;-53
2023/10/23 10:22:43;;;;;;;6.87;4.03;;;;;;;;;;5062070;27;89902;-53
2023/10/23 10:25:12;;;;;;;7.10;4.63;;;;;;;;;;5061166;27;89998;-54
2023/10/23 10:27:40;;;;;;;9.40;5.33;;;;;;;;;;5060822;27;89532;-53
2023/10/23 10:30:29;;;;;;;8.40;4.93;;;;;;;;;;5058843;27;88781;-52
2023/10/23 10:32:57;;;;;;;9.47;4.53;;;;;;;;;;5041149;27;89589;-54
2023/10/23 10:35:49;;;;;;;4.67;4.17;;;;;;;;;;5060135;27;88237;-54
2023/10/23 10:38:23;;;;;;;8.93;5.53;;;;;;;;;;5060920;27;88644;-53
2023/10/23 10:40:56;;;;;;;6.93;4.10;;;;;;;;;;5058209;27;87545;-53
2023/10/23 10:43:25;;;;;;;6.90;4.47;;;;;;;;;;5059327;27;89620;-53
2023/10/23 10:45:53;;;;;;;6.27;4.40;;;;;;;;;;5060018;27;87981;-53
2023/10/23 10:48:21;;;;;;;7.13;4.73;;;;;;;;;;5059384;27;89394;-53
2023/10/23 10:50:50;;;;;;;6.90;4.73;;;;;;;;;;5058536;27;87990;-53
2023/10/23 10:53:18;;;;;;;7.27;4.37;;;;;;;;;;5060845;27;89679;-53
2023/10/23 10:55:48;;;;;;;6.53;4.30;;;;;;;;;;5057951;27;88042;-53
2023/10/23 10:58:17;;;;;;;7.63;5.00;;;;;;;;;;5060205;27;87635;-53
2023/10/23 11:00:46;;;;;;;7.13;5.17;;;;;;;;;;5061235;27;87865;-53
2023/10/23 11:03:15;;;;;;;12.27;5.70;;;;;;;;;;5061454;27;88605;-53
2023/10/23 11:05:46;;;;;;;6.23;4.07;;;;;;;;;;5060972;27;87731;-54
2023/10/23 11:08:15;;;;;;;8.07;5.00;;;;;;;;;;5059965;27;87524;-54
2023/10/23 11:10:44;;;;;;;6.87;4.60;;;;;;;;;;5053793;27;87661;-54
2023/10/23 11:13:17;;;;;;;7.03;5.20;;;;;;;;;;5060027;27;88448;-53
2023/10/23 11:15:46;;;;;;;6.90;5.37;;;;;;;;;;5058805;27;90037;-53
2023/10/23 11:18:17;;;;;;;8.07;5.07;;;;;;;;;;5055284;27;89946;-53
2023/10/23 11:20:45;;;;;;;6.77;4.83;;;;;;;;;;5060375;27;87684;-55
2023/10/23 11:23:16;;;;;;;9.90;5.53;;;;;;;;;;5055290;27;87539;-53
2023/10/23 11:25:48;;;;;;;7.20;5.03;;;;;;;;;;5059568;27;87469;-54
2023/10/23 11:28:19;;;;;;;7.97;5.20;;;;;;;;;;5059222;27;89413;-53
2023/10/23 11:30:48;;;;;;;9.73;5.10;;;;;;;;;;5060387;27;87406;-54
2023/10/23 11:33:17;;;;;;;6.27;4.23;;;;;;;;;;5060609;27;87542;-54
2023/10/23 11:35:46;;;;;;;7.63;5.67;;;;;;;;;;5058872;27;88088;-53
2023/10/23 11:38:14;;;;;;;8.93;5.97;;;;;;;;;;5060135;27;87705;-54
2023/10/23 11:40:43;;;;;;;9.23;4.10;;;;;;;;;;5054763;27;89795;-54
2023/10/23 11:43:11;;;;;;;9.10;4.87;;;;;;;;;;5048538;27;89532;-54
2023/10/23 11:45:42;;;;;;;9.73;5.00;;;;;;;;;;5059756;27;87684;-53
2023/10/23 11:48:11;;;;;;;8.43;5.43;;;;;;;;;;5060038;27;88842;-54
2023/10/23 11:50:40;;;;;;;10.27;5.10;;;;;;;;;;5060174;27;87663;-53
2023/10/23 11:53:09;;;;;;;7.40;5.47;;;;;;;;;;5054455;27;88712;-54
2023/10/23 11:55:37;;;;;;;7.87;5.20;;;;;;;;;;5060054;27;87725;-54
2023/10/23 11:58:06;;;;;;;7.43;4.77;;;;;;;;;;5060105;27;87695;-53
2023/10/23 12:00:37;;;;;;;9.10;4.37;;;;;;;;;;5058926;27;87704;-53
2023/10/23 12:03:07;;;;;;;7.53;4.43;;;;;;;;;;5059826;27;89594;-53
2023/10/23 12:05:35;;;;;;;8.10;5.50;;;;;;;;;;5057947;27;90259;-52
2023/10/23 12:08:05;;;;;;;9.93;4.03;;;;;;;;;;5057065;27;88815;-56
2023/10/23 12:10:37;;;;;;;7.63;4.70;;;;;;;;;;5057039;27;87570;-55
2023/10/23 12:13:06;;;;;;;6.67;4.60;;;;;;;;;;5060432;27;89746;-58
2023/10/23 12:15:34;;;;;;;7.67;4.97;;;;;;;;;;5059848;27;89127;-56
2023/10/23 12:18:04;;;;;;;6.97;4.80;;;;;;;;;;5060528;27;88753;-54
2023/10/23 12:20:34;;;;;;;5.57;4.53;;;;;;;;;;5060377;27;87675;-58
2023/10/23 12:23:02;;;;;;;7.27;4.70;;;;;;;;;;5060460;27;89500;-55
2023/10/23 12:25:30;;;;;;;4.33;3.83;;;;;;;;;;5060283;27;89184;-53
2023/10/23 12:27:59;;;;;;;5.50;3.93;;;;;;;;;;5063016;27;88470;-53
2023/10/23 12:30:27;;;;;;;8.40;4.00;;;;;;;;;;5063206;27;88025;-54
2023/10/23 12:32:56;;;;;;;7.00;4.53;;;;;;;;;;5063693;27;88466;-54
2023/10/23 12:35:46;;;;;;;9.40;5.27;;;;;;;;;;5063792;27;87654;-54
2023/10/23 12:38:14;;;;;;;5.23;3.73;;;;;;;;;;5063676;27;88909;-54
2023/10/23 12:40:43;;;;;;;5.97;4.57;;;;;;;;;;5060378;27;87532;-53
2023/10/23 12:43:12;;;;;;;7.37;4.53;;;;;;;;;;5063054;27;88504;-54
2023/10/23 12:45:40;;;;;;;7.47;4.60;;;;;;;;;;5043121;28;89172;-54
2023/10/23 12:48:10;;;;;;;7.93;3.73;;;;;;;;;;5043105;28;88861;-54
2023/10/23 12:50:38;;;;;;;6.67;4.03;;;;;;;;;;5060726;27;87663;-54
2023/10/23 12:53:08;;;;;;;5.07;4.10;;;;;;;;;;5063131;27;89729;-54
2023/10/23 12:55:37;;;;;;;4.73;3.77;;;;;;;;;;5062852;27;89132;-55
2023/10/23 12:58:05;;;;;;;6.87;4.20;;;;;;;;;;5063090;27;88655;-53
2023/10/23 13:00:33;;;;;;;7.93;4.30;;;;;;;;;;5061956;27;87431;-54
2023/10/23 13:03:02;;;;;;;6.77;4.10;;;;;;;;;;5058653;27;88544;-54
2023/10/23 13:05:30;;;;;;;11.93;4.50;;;;;;;;;;5062546;27;89361;-54
2023/10/23 13:07:59;;;;;;;9.50;5.37;;;;;;;;;;5058766;27;87980;-54
2023/10/23 13:10:28;;;;;;;6.30;4.00;;;;;;;;;;5062008;27;87637;-54
2023/10/23 13:12:57;;;;;;;6.33;3.93;;;;;;;;;;5063223;27;89783;-53
2023/10/23 13:15:25;;;;;;;5.77;4.07;;;;;;;;;;5062692;27;89176;-54
2023/10/23 13:17:55;;;;;;;12.23;5.00;;;;;;;;;;5041729;27;89194;-53
2023/10/23 13:20:24;;;;;;;6.73;4.23;;;;;;;;;;5027370;27;89009;-53
2023/10/23 13:23:12;;;;;;;5.87;3.17;;;;;;;;;;5049664;27;88196;-54
2023/10/23 13:25:42;;;;;;;4.97;3.27;;;;;;;;;;5062560;27;88300;-54
2023/10/23 13:28:19;;;;;;;4.53;3.00;;;;;;;;;;5052278;27;87730;-54
2023/10/23 13:30:47;;;;;;;5.10;3.27;;;;;;;;;;5048365;27;89055;-53
2023/10/23 13:33:16;;;;;;;4.90;3.47;;;;;;;;;;5057214;27;90222;-54
2023/10/23 13:35:44;;;;;;;7.77;3.67;;;;;;;;;;5052734;27;88379;-54
2023/10/23 13:38:13;;;;;;;4.53;3.57;;;;;;;;;;5060943;27;88381;-53
2023/10/23 13:40:43;;;;;;;3.67;2.67;;;;;;;;;;5062111;27;87620;-54
2023/10/23 13:43:11;;;;;;;10.30;3.87;;;;;;;;;;5057777;27;88516;-54
2023/10/23 13:45:39;;;;;;;11.43;3.33;;;;;;;;;;5061507;27;89040;-53
2023/10/23 13:48:08;;;;;;;5.87;3.17;;;;;;;;;;5061851;27;88835;-53
2023/10/23 13:50:36;;;;;;;8.53;3.93;;;;;;;;;;5062185;27;87624;-54
2023/10/23 13:53:05;;;;;;;6.53;3.40;;;;;;;;;;5046778;27;88562;-53
2023/10/23 13:55:36;;;;;;;5.27;3.03;;;;;;;;;;5061702;27;87487;-54
2023/10/23 13:58:06;;;;;;;6.27;3.37;;;;;;;;;;5061402;27;88732;-53
2023/10/23 14:00:34;;;;;;;3.90;3.30;;;;;;;;;;5061811;27;87549;-54
2023/10/23 14:03:02;;;;;;;3.93;2.63;;;;;;;;;;5061999;27;88398;-54
2023/10/23 14:05:31;;;;;;;5.00;3.43;;;;;;;;;;5053940;27;89112;-54
2023/10/23 14:08:01;;;;;;;3.83;2.60;;;;;;;;;;5061546;27;87846;-53
2023/10/23 14:10:29;;;;;;;6.83;2.80;;;;;;;;;;5061696;27;88285;-53
2023/10/23 14:12:57;;;;;;;4.80;2.90;;;;;;;;;;5060618;27;88781;-53
2023/10/23 14:15:27;;;;;;;5.47;2.77;;;;;;;;;;5061977;27;89208;-53
2023/10/23 14:17:56;;;;;;;3.60;3.23;;;;;;;;;;5061882;27;88907;-54
2023/10/23 14:20:24;;;;;;;4.43;2.87;;;;;;;;;;5045712;27;88930;-54
2023/10/23 14:22:55;;;;;;;3.80;2.70;;;;;;;;;;5037585;27;89657;-53
2023/10/23 14:25:24;;;;;;;4.77;2.67;;;;;;;;;;5058210;27;88092;-53
2023/10/23 14:27:54;;;;;;;3.70;2.90;;;;;;;;;;5059367;27;88449;-54
2023/10/23 14:30:22;;;;;;;3.33;2.43;;;;;;;;;;5060404;27;87775;-53
2023/10/23 14:32:52;;;;;;;3.90;3.00;;;;;;;;;;5060813;27;89881;-57
2023/10/23 14:35:21;;;;;;;4.23;3.07;;;;;;;;;;5061161;27;89273;-54
2023/10/23 14:37:49;;;;;;;5.83;2.83;;;;;;;;;;5056605;27;88758;-53
2023/10/23 14:40:18;;;;;;;3.90;2.87;;;;;;;;;;5038063;28;87711;-53
2023/10/23 14:42:46;;;;;;;7.47;3.07;;;;;;;;;;5036170;28;88691;-54
2023/10/23 14:45:14;;;;;;;6.30;2.83;;;;;;;;;;5036482;27;87699;-54
2023/10/23 14:47:43;;;;;;;3.53;2.57;;;;;;;;;;5049705;27;89327;-54
2023/10/23 14:50:13;;;;;;;4.00;2.97;;;;;;;;;;5058173;27;87648;-53
2023/10/23 14:52:44;;;;;;;11.70;2.93;;;;;;;;;;5058781;27;87447;-54
2023/10/23 14:55:12;;;;;;;4.33;2.50;;;;;;;;;;5058632;27;89135;-54